createdAt,value
2019-05-06T00:01:44.805Z,100342.05
2019-05-06T00:05:51.605Z,100341.42
2019-05-06T00:09:58.573Z,100338.67
2019-05-06T00:14:06.499Z,100331.58
2019-05-06T00:18:13.900Z,100330.25
2019-05-06T00:22:20.857Z,100330.75
2019-05-06T00:26:45.436Z,100330.25
2019-05-06T00:31:02.834Z,100328.33
2019-05-06T00:35:04.551Z,100328.27
2019-05-06T00:39:33.693Z,100334.39
2019-05-06T00:43:40.486Z,100339.52
2019-05-06T00:47:47.216Z,100333.44
2019-05-06T00:52:01.500Z,100335.42
2019-05-06T00:56:08.195Z,100342.66
2019-05-06T01:00:30.293Z,100350.25
2019-05-06T01:04:37.102Z,100351.88
2019-05-06T01:08:44.136Z,100352.69
2019-05-06T01:13:05.819Z,100344.52
2019-05-06T01:17:13.433Z,100342.53
2019-05-06T01:21:20.320Z,100341.73
2019-05-06T01:25:27.132Z,100350.66
2019-05-06T01:29:34.828Z,100352.29
2019-05-06T01:33:42.705Z,100348.47
2019-05-06T01:37:54.581Z,100349.02
2019-05-06T01:42:34.464Z,100353.61
2019-05-06T01:46:41.066Z,100350.98
2019-05-06T01:50:47.773Z,100361.41
2019-05-06T01:54:54.453Z,100356.14
2019-05-06T01:59:01.204Z,100363.27
2019-05-06T02:03:07.918Z,100365.09
2019-05-06T02:07:14.752Z,100363.34
2019-05-06T02:11:21.500Z,100364.66
2019-05-06T02:15:28.586Z,100357.94
2019-05-06T02:19:36.078Z,100360.14
2019-05-06T02:23:46.344Z,100364.09
2019-05-06T02:27:54.174Z,100367.41
2019-05-06T02:32:25.920Z,100365.97
2019-05-06T02:37:05.967Z,100366.33
2019-05-06T02:41:13.348Z,100366.52
2019-05-06T02:45:19.389Z,100363.56
2019-05-06T02:49:48.647Z,100375.13
2019-05-06T02:53:55.369Z,100376.12
2019-05-06T02:58:02.844Z,100371.84
2019-05-06T03:02:13.686Z,100374.80
2019-05-06T03:06:20.216Z,100375.80
2019-05-06T03:10:27.790Z,100374.83
2019-05-06T03:14:35.958Z,100376.80
2019-05-06T03:18:43.449Z,100377.77
2019-05-06T03:23:03.922Z,100378.45
2019-05-06T03:27:14.111Z,100379.09
2019-05-06T03:31:26.085Z,100369.88
2019-05-06T03:35:44.124Z,100381.71
2019-05-06T03:39:39.536Z,100380.23
2019-05-06T03:43:46.783Z,100381.84
2019-05-06T03:47:59.910Z,100384.12
2019-05-06T03:52:06.899Z,100383.77
2019-05-06T03:56:19.275Z,100382.96
2019-05-06T04:00:23.815Z,100387.69
2019-05-06T04:04:33.406Z,100393.09
2019-05-06T04:08:43.459Z,100396.02
2019-05-06T04:12:53.510Z,100396.66
2019-05-06T04:17:13.644Z,100392.74
2019-05-06T04:21:26.924Z,100396.67
2019-05-06T04:25:52.717Z,100403.06
2019-05-06T04:30:04.632Z,100405.53
2019-05-06T04:34:19.458Z,100410.48
2019-05-06T04:38:24.013Z,100415.06
2019-05-06T04:42:34.519Z,100419.16
2019-05-06T04:46:48.883Z,100422.31
2019-05-06T04:50:56.928Z,100421.66
2019-05-06T04:55:04.456Z,100434.31
2019-05-06T04:59:13.884Z,100437.30
2019-05-06T05:03:23.096Z,100435.86
2019-05-06T05:07:30.026Z,100433.91
2019-05-06T05:11:48.977Z,100435.20
2019-05-06T05:16:14.627Z,100447.47
2019-05-06T05:20:36.482Z,100453.87
2019-05-06T05:24:33.336Z,100455.67
2019-05-06T05:28:42.795Z,100461.05
2019-05-06T05:32:49.096Z,100466.59
2019-05-06T05:36:56.026Z,100465.62
2019-05-06T05:41:03.179Z,100470.58
2019-05-06T05:45:12.856Z,100473.05
2019-05-06T05:49:28.574Z,100475.20
2019-05-06T05:53:35.544Z,100480.61
2019-05-06T05:57:43.211Z,100481.12
2019-05-06T06:01:52.925Z,100482.77
2019-05-06T06:05:59.421Z,100487.69
2019-05-06T06:10:18.579Z,100497.70
2019-05-06T06:14:56.081Z,100493.86
2019-05-06T06:19:23.026Z,100493.63
2019-05-06T06:23:34.007Z,100495.90
2019-05-06T06:27:51.904Z,100485.77
2019-05-06T06:32:20.095Z,100492.61
2019-05-06T06:36:37.810Z,100488.95
2019-05-06T06:40:44.861Z,100490.05
2019-05-06T06:44:52.156Z,100492.30
2019-05-06T06:49:00.015Z,100490.11
2019-05-06T06:53:07.043Z,100494.91
2019-05-06T06:57:31.446Z,100496.47
2019-05-06T07:01:44.490Z,100498.91
2019-05-06T07:06:04.906Z,100496.78
2019-05-06T07:10:32.390Z,100498.99
2019-05-06T07:14:39.338Z,100494.65
2019-05-06T07:18:46.139Z,100500.63
2019-05-06T07:22:54.264Z,100498.84
2019-05-06T07:27:12.543Z,100502.58
2019-05-06T07:31:23.729Z,100501.61
2019-05-06T07:35:38.465Z,100499.85
2019-05-06T07:39:42.815Z,100509.55
2019-05-06T07:44:03.783Z,100501.91
2019-05-06T07:48:15.011Z,100502.79
2019-05-06T07:52:23.049Z,100499.07
2019-05-06T07:56:32.083Z,100501.33
2019-05-06T08:00:39.145Z,100492.79
2019-05-06T08:04:46.251Z,100500.73
2019-05-06T08:08:53.823Z,100500.38
2019-05-06T08:13:02.717Z,100498.64
2019-05-06T08:17:19.349Z,100504.75
2019-05-06T08:21:28.051Z,100506.53
2019-05-06T08:25:42.506Z,100511.05
2019-05-06T08:29:49.478Z,100513.15
2019-05-06T08:33:56.485Z,100509.27
2019-05-06T08:38:03.664Z,100504.66
2019-05-06T08:42:10.453Z,100504.78
2019-05-06T08:46:17.364Z,100507.71
2019-05-06T08:50:34.817Z,100507.55
2019-05-06T08:54:46.442Z,100494.13
2019-05-06T08:58:53.704Z,100494.82
2019-05-06T09:03:00.692Z,100495.53
2019-05-06T09:07:07.716Z,100499.34
2019-05-06T09:11:14.482Z,100503.62
2019-05-06T09:15:21.988Z,100495.46
2019-05-06T09:19:29.294Z,100494.28
2019-05-06T09:23:36.202Z,100497.30
2019-05-06T09:28:13.073Z,100493.86
2019-05-06T09:32:28.291Z,100488.41
2019-05-06T09:36:43.802Z,100482.47
2019-05-06T09:40:43.433Z,100482.87
2019-05-06T09:44:53.946Z,100482.64
2019-05-06T09:49:12.664Z,100483.28
2019-05-06T09:53:43.225Z,100488.08
2019-05-06T09:58:05.123Z,100485.73
2019-05-06T10:02:12.641Z,100483.66
2019-05-06T10:06:22.164Z,100482.13
2019-05-06T10:10:28.282Z,100480.95
2019-05-06T10:14:35.077Z,100472.45
2019-05-06T10:18:41.939Z,100473.61
2019-05-06T10:22:49.112Z,100467.50
2019-05-06T10:26:59.556Z,100463.36
2019-05-06T10:31:08.937Z,100461.50
2019-05-06T10:35:16.356Z,100455.14
2019-05-06T10:39:27.711Z,100464.44
2019-05-06T10:44:02.981Z,100468.07
2019-05-06T10:48:10.038Z,100459.25
2019-05-06T10:52:33.302Z,100457.81
2019-05-06T10:57:08.311Z,100453.03
2019-05-06T11:01:23.151Z,100453.50
2019-05-06T11:05:32.403Z,100454.39
2019-05-06T11:09:38.840Z,100444.56
2019-05-06T11:13:45.667Z,100444.13
2019-05-06T11:17:52.455Z,100440.59
2019-05-06T11:21:59.429Z,100440.75
2019-05-06T11:26:06.318Z,100438.42
2019-05-06T11:30:24.812Z,100435.71
2019-05-06T11:34:56.083Z,100432.74
2019-05-06T11:39:03.926Z,100428.37
2019-05-06T11:43:12.161Z,100432.95
2019-05-06T11:47:19.160Z,100434.45
2019-05-06T11:51:27.749Z,100425.27
2019-05-06T11:55:38.884Z,100424.48
2019-05-06T11:59:43.956Z,100414.77
2019-05-06T12:03:52.189Z,100421.45
2019-05-06T12:08:04.617Z,100421.80
2019-05-06T12:12:08.785Z,100411.08
2019-05-06T12:16:18.007Z,100419.42
2019-05-06T12:20:33.021Z,100415.14
2019-05-06T12:24:39.441Z,100416.59
2019-05-06T12:28:46.460Z,100417.29
2019-05-06T12:33:33.173Z,100406.00
2019-05-06T12:37:44.125Z,100405.05
2019-05-06T12:42:16.208Z,100406.20
2019-05-06T12:46:43.025Z,100403.61
2019-05-06T12:50:52.334Z,100402.20
2019-05-06T12:55:17.479Z,100403.57
2019-05-06T12:59:09.266Z,100397.54
2019-05-06T13:03:16.028Z,100400.94
2019-05-06T13:07:29.211Z,100408.34
2019-05-06T13:11:37.491Z,100399.58
2019-05-06T13:15:46.058Z,100410.92
2019-05-06T13:19:52.988Z,100401.36
2019-05-06T13:24:05.724Z,100405.03
2019-05-06T13:28:14.708Z,100399.88
2019-05-06T13:32:25.103Z,100397.95
2019-05-06T13:36:33.365Z,100396.28
2019-05-06T13:40:54.113Z,100400.06
2019-05-06T13:44:49.220Z,100393.28
2019-05-06T13:49:13.917Z,100391.29
2019-05-06T13:53:27.388Z,100390.00
2019-05-06T13:57:32.119Z,100393.25
2019-05-06T14:02:06.890Z,100388.92
2019-05-06T14:06:13.123Z,100386.63
2019-05-06T14:10:25.262Z,100386.63
2019-05-06T14:14:32.346Z,100387.50
2019-05-06T14:18:39.138Z,100386.43
2019-05-06T14:22:46.071Z,100389.78
2019-05-06T14:27:02.552Z,100384.86
2019-05-06T14:31:25.716Z,100385.31
2019-05-06T14:35:33.376Z,100389.20
2019-05-06T14:39:53.685Z,100396.30
2019-05-06T14:43:55.348Z,100388.58
2019-05-06T14:48:02.265Z,100391.41
2019-05-06T14:52:13.163Z,100392.25
2019-05-06T14:56:26.327Z,100387.78
2019-05-06T15:00:33.219Z,100387.57
2019-05-06T15:04:43.437Z,100387.25
2019-05-06T15:08:51.106Z,100388.47
2019-05-06T15:12:58.027Z,100389.91
2019-05-06T15:17:04.923Z,100388.17
2019-05-06T15:21:30.194Z,100378.75
2019-05-06T15:25:22.180Z,100388.75
2019-05-06T15:29:30.512Z,100384.59
2019-05-06T15:33:40.829Z,100392.77
2019-05-06T15:37:53.423Z,100386.72
2019-05-06T15:42:01.377Z,100389.69
2019-05-06T15:46:08.517Z,100392.67
2019-05-06T15:50:16.518Z,100388.69
2019-05-06T15:54:23.615Z,100392.99
2019-05-06T15:58:32.484Z,100396.75
2019-05-06T16:02:41.967Z,100403.31
2019-05-06T16:06:48.901Z,100403.88
2019-05-06T16:10:58.806Z,100400.32
2019-05-06T16:15:07.502Z,100400.23
2019-05-06T16:19:14.422Z,100403.37
2019-05-06T16:23:28.141Z,100399.11
2019-05-06T16:27:34.954Z,100397.66
2019-05-06T16:31:45.075Z,100402.98
2019-05-06T16:35:54.974Z,100396.64
2019-05-06T16:40:06.550Z,100394.19
2019-05-06T16:44:13.602Z,100386.13
2019-05-06T16:48:22.579Z,100387.64
2019-05-06T16:52:34.495Z,100381.20
2019-05-06T16:56:46.958Z,100381.16
2019-05-06T17:00:53.892Z,100377.82
2019-05-06T17:05:19.469Z,100373.48
2019-05-06T17:09:27.862Z,100380.34
2019-05-06T17:13:37.697Z,100385.03
2019-05-06T17:17:46.901Z,100369.53
2019-05-06T17:21:52.535Z,100377.34
2019-05-06T17:25:59.707Z,100383.14
2019-05-06T17:30:33.122Z,100379.69
2019-05-06T17:34:42.638Z,100390.63
2019-05-06T17:38:52.572Z,100391.62
2019-05-06T17:42:59.495Z,100390.09
2019-05-06T17:47:16.142Z,100396.23
2019-05-06T17:51:37.621Z,100391.44
2019-05-06T17:55:44.766Z,100397.27
2019-05-06T17:59:52.794Z,100397.14
2019-05-06T18:04:02.098Z,100396.25
2019-05-06T18:08:08.657Z,100403.02
2019-05-06T18:12:16.593Z,100401.80
2019-05-06T18:16:23.537Z,100396.84
2019-05-06T18:20:30.281Z,100396.09
2019-05-06T18:24:37.291Z,100399.05
2019-05-06T18:28:44.396Z,100398.02
2019-05-06T18:32:52.053Z,100393.77
2019-05-06T18:37:02.944Z,100397.35
2019-05-06T18:41:11.867Z,100391.66
2019-05-06T18:45:38.908Z,100395.12
2019-05-06T18:49:52.137Z,100398.23
2019-05-06T18:53:59.745Z,100414.59
2019-05-06T18:58:08.034Z,100410.61
2019-05-06T19:02:14.850Z,100408.48
2019-05-06T19:06:23.202Z,100409.97
2019-05-06T19:10:34.155Z,100423.82
2019-05-06T19:14:43.269Z,100420.97
2019-05-06T19:18:55.631Z,100431.88
2019-05-06T19:23:03.012Z,100433.72
2019-05-06T19:27:17.071Z,100430.19
2019-05-06T19:31:27.809Z,100439.07
2019-05-06T19:35:37.097Z,100440.47
2019-05-06T19:39:53.022Z,100436.89
2019-05-06T19:44:02.188Z,100439.73
2019-05-06T19:48:09.230Z,100440.74
2019-05-06T19:52:18.400Z,100440.91
2019-05-06T19:56:25.283Z,100434.29
2019-05-06T20:00:32.639Z,100443.99
2019-05-06T20:04:44.064Z,100443.29
2019-05-06T20:08:55.431Z,100437.78
2019-05-06T20:13:05.597Z,100436.05
2019-05-06T20:17:13.604Z,100431.73
2019-05-06T20:21:20.540Z,100434.84
2019-05-06T20:25:27.491Z,100436.25
2019-05-06T20:29:36.789Z,100429.29
2019-05-06T20:33:47.183Z,100437.49
2019-05-06T20:37:54.323Z,100434.48
2019-05-06T20:42:03.682Z,100432.33
2019-05-06T20:46:12.416Z,100432.61
2019-05-06T20:50:22.378Z,100436.67
2019-05-06T20:54:29.404Z,100434.33
2019-05-06T20:58:36.334Z,100435.55
2019-05-06T21:02:45.101Z,100427.86
2019-05-06T21:06:52.914Z,100432.41
2019-05-06T21:11:00.007Z,100431.53
2019-05-06T21:15:08.410Z,100431.02
2019-05-06T21:19:15.819Z,100426.03
2019-05-06T21:23:22.883Z,100429.17
2019-05-06T21:27:29.893Z,100430.95
2019-05-06T21:31:38.256Z,100425.52
2019-05-06T21:35:45.080Z,100431.54
2019-05-06T21:39:53.000Z,100435.16
2019-05-06T21:44:02.287Z,100426.46
2019-05-06T21:48:08.843Z,100425.45
2019-05-06T21:52:15.702Z,100425.84
2019-05-06T21:56:22.720Z,100424.13
2019-05-06T22:00:48.667Z,100422.05
2019-05-06T22:04:55.804Z,100422.12
2019-05-06T22:09:02.832Z,100424.13
2019-05-06T22:13:12.592Z,100412.34
2019-05-06T22:17:19.728Z,100418.30
2019-05-06T22:21:26.522Z,100420.52
2019-05-06T22:25:33.284Z,100421.94
2019-05-06T22:29:42.506Z,100422.40
2019-05-06T22:33:48.603Z,100412.17
2019-05-06T22:37:57.121Z,100418.59
2019-05-06T22:42:03.915Z,100413.30
2019-05-06T22:46:12.299Z,100414.20
2019-05-06T22:50:19.321Z,100412.45
2019-05-06T22:54:26.158Z,100411.17
2019-05-06T22:58:34.626Z,100405.61
2019-05-06T23:02:52.723Z,100407.91
2019-05-06T23:06:59.423Z,100411.60
2019-05-06T23:11:06.448Z,100411.53
2019-05-06T23:15:13.424Z,100414.36
2019-05-06T23:19:21.955Z,100411.37
2019-05-06T23:23:28.667Z,100412.45
2019-05-06T23:27:35.447Z,100408.45
2019-05-06T23:31:42.628Z,100407.91
2019-05-06T23:35:51.498Z,100404.25
2019-05-06T23:40:52.179Z,100400.20
2019-05-06T23:45:54.389Z,100396.59
2019-05-06T23:50:55.277Z,100393.09
2019-05-06T23:55:56.044Z,100395.77
